Time;durP1;ratioP1;P1;durP2;ratioP2;P2;SDS_P1;SDS_P2;PMS_P1;PMS_P2;Temp;Humidity;BMP_temperature;BMP_pressure;BME280_temperature;BME280_humidity;BME280_pressure;Samples;Min_cycle;Max_cycle;Signal;HPM_P1;HPM_P2
2023/05/05 00:01:43;;;;;;;12.25;4.15;;;;;;;;;;5030286;28;20075;-65
2023/05/05 00:04:09;;;;;;;8.25;4.00;;;;;;;;;;5028493;28;20013;-66
2023/05/05 00:06:34;;;;;;;12.32;4.22;;;;;;;;;;5029850;28;20356;-65
2023/05/05 00:08:59;;;;;;;14.30;4.30;;;;;;;;;;5030592;28;20021;-66
2023/05/05 00:11:24;;;;;;;12.10;3.80;;;;;;;;;;5042884;23;20010;-61
2023/05/05 00:13:50;;;;;;;19.50;4.55;;;;;;;;;;5029886;28;20037;-58
2023/05/05 00:16:16;;;;;;;11.27;3.97;;;;;;;;;;5030222;28;20048;-62
2023/05/05 00:18:41;;;;;;;8.63;3.88;;;;;;;;;;5030274;28;20025;-62
2023/05/05 00:21:06;;;;;;;7.30;3.95;;;;;;;;;;5029452;28;20055;-63
2023/05/05 00:23:32;;;;;;;12.30;5.22;;;;;;;;;;5029896;28;20468;-60
2023/05/05 00:25:57;;;;;;;8.20;3.72;;;;;;;;;;5029828;28;20406;-62
2023/05/05 00:28:22;;;;;;;12.77;4.25;;;;;;;;;;5030048;28;20056;-61
2023/05/05 00:30:47;;;;;;;7.90;4.22;;;;;;;;;;5030246;28;20049;-63
2023/05/05 00:33:13;;;;;;;8.48;4.38;;;;;;;;;;5029965;28;20025;-63
2023/05/05 00:35:38;;;;;;;10.82;4.53;;;;;;;;;;5021385;28;20076;-62
2023/05/05 00:38:06;;;;;;;12.40;4.38;;;;;;;;;;5029681;28;20534;-62
2023/05/05 00:40:31;;;;;;;13.07;4.93;;;;;;;;;;5029646;28;20044;-61
2023/05/05 00:42:58;;;;;;;10.18;3.67;;;;;;;;;;5029999;28;20013;-62
2023/05/05 00:45:23;;;;;;;11.30;4.60;;;;;;;;;;5028249;28;20018;-62
2023/05/05 00:47:56;;;;;;;10.70;4.07;;;;;;;;;;5029821;28;20025;-61
2023/05/05 00:50:25;;;;;;;13.68;4.90;;;;;;;;;;5029810;28;20025;-61
2023/05/05 00:52:52;;;;;;;15.25;4.55;;;;;;;;;;5029472;28;20024;-59
2023/05/05 00:55:18;;;;;;;11.02;4.40;;;;;;;;;;5028285;28;20112;-63
2023/05/05 00:57:44;;;;;;;10.38;4.57;;;;;;;;;;5029226;28;20109;-61
2023/05/05 01:00:09;;;;;;;8.98;4.22;;;;;;;;;;5029655;28;20014;-61
2023/05/05 01:02:35;;;;;;;13.90;4.88;;;;;;;;;;5029354;28;20541;-61
2023/05/05 01:05:00;;;;;;;9.95;4.13;;;;;;;;;;5029516;28;20463;-59
2023/05/05 01:07:44;;;;;;;15.15;4.97;;;;;;;;;;5028909;28;20484;-62
2023/05/05 01:10:45;;;;;;;10.18;3.85;;;;;;;;;;5029628;28;20026;-62
2023/05/05 01:13:13;;;;;;;13.75;4.80;;;;;;;;;;4987507;28;20034;-62
2023/05/05 01:15:46;;;;;;;10.70;4.60;;;;;;;;;;5022655;28;20479;-62
2023/05/05 01:18:27;;;;;;;14.63;4.93;;;;;;;;;;5034419;28;20040;-62
2023/05/05 01:21:15;;;;;;;14.10;4.90;;;;;;;;;;5033614;28;20021;-62
2023/05/05 01:23:53;;;;;;;10.35;4.70;;;;;;;;;;5022578;28;20451;-61
2023/05/05 01:26:18;;;;;;;21.48;5.63;;;;;;;;;;5032360;28;20075;-62
2023/05/05 01:29:07;;;;;;;13.75;4.50;;;;;;;;;;5033622;28;20025;-64
2023/05/05 01:31:35;;;;;;;11.88;4.68;;;;;;;;;;5021089;28;20032;-62
2023/05/05 01:34:04;;;;;;;13.23;4.55;;;;;;;;;;5033049;28;20029;-59
2023/05/05 01:36:32;;;;;;;9.50;4.57;;;;;;;;;;5024205;28;20029;-62
2023/05/05 01:38:59;;;;;;;10.63;4.97;;;;;;;;;;5027680;28;20391;-62
2023/05/05 01:41:27;;;;;;;14.40;4.78;;;;;;;;;;5033332;28;20022;-62
2023/05/05 01:43:54;;;;;;;9.00;4.20;;;;;;;;;;5032897;28;20039;-59
2023/05/05 01:46:20;;;;;;;12.65;4.75;;;;;;;;;;5033146;28;20017;-61
2023/05/05 01:48:46;;;;;;;15.57;4.75;;;;;;;;;;5032741;28;20025;-61
2023/05/05 01:51:12;;;;;;;12.60;4.68;;;;;;;;;;5028468;28;20364;-58
2023/05/05 01:53:38;;;;;;;12.55;4.97;;;;;;;;;;5032497;28;20033;-61
2023/05/05 01:56:03;;;;;;;12.25;5.05;;;;;;;;;;5033092;28;20094;-61
2023/05/05 01:58:29;;;;;;;12.73;4.85;;;;;;;;;;5032504;28;20030;-62
2023/05/05 02:00:56;;;;;;;9.23;5.00;;;;;;;;;;5032858;28;20383;-61
2023/05/05 02:03:22;;;;;;;9.85;4.88;;;;;;;;;;5032556;28;20118;-61
2023/05/05 02:05:48;;;;;;;6.97;4.18;;;;;;;;;;5032592;28;20441;-63
2023/05/05 02:08:14;;;;;;;12.10;4.70;;;;;;;;;;5031782;28;20061;-62
2023/05/05 02:10:40;;;;;;;12.98;4.80;;;;;;;;;;5032956;28;20045;-59
2023/05/05 02:13:05;;;;;;;12.82;4.95;;;;;;;;;;5032170;28;20037;-62
2023/05/05 02:15:32;;;;;;;12.50;4.97;;;;;;;;;;5032515;28;20017;-63
2023/05/05 02:17:58;;;;;;;17.10;6.28;;;;;;;;;;5033441;28;20631;-62
2023/05/05 02:20:25;;;;;;;13.32;4.47;;;;;;;;;;5034304;28;20030;-62
2023/05/05 02:22:50;;;;;;;8.30;4.45;;;;;;;;;;5034231;28;20026;-61
2023/05/05 02:25:19;;;;;;;13.82;4.95;;;;;;;;;;5033659;28;20024;-63
2023/05/05 02:27:47;;;;;;;13.18;5.78;;;;;;;;;;5032448;28;20087;-63
2023/05/05 02:30:14;;;;;;;15.38;5.78;;;;;;;;;;5033187;28;20084;-61
2023/05/05 02:32:43;;;;;;;9.23;5.18;;;;;;;;;;5032660;28;20059;-59
2023/05/05 02:35:08;;;;;;;;;;;;;;;;;;5032420;28;20018;-60
2023/05/05 02:37:34;;;;;;;12.57;5.07;;;;;;;;;;5026150;28;19924;-62
2023/05/05 02:40:01;;;;;;;15.38;5.10;;;;;;;;;;5030624;28;20613;-60
2023/05/05 02:42:32;;;;;;;12.68;5.13;;;;;;;;;;5031971;28;20079;-63
2023/05/05 02:44:58;;;;;;;25.27;5.13;;;;;;;;;;5031455;28;20018;-62
2023/05/05 02:47:44;;;;;;;14.07;5.35;;;;;;;;;;5032044;28;20109;-61
2023/05/05 02:50:09;;;;;;;16.25;5.47;;;;;;;;;;5031493;28;20036;-62
2023/05/05 02:52:35;;;;;;;11.02;5.25;;;;;;;;;;5022995;28;20025;-62
2023/05/05 02:55:01;;;;;;;21.63;4.90;;;;;;;;;;5030986;28;20463;-63
2023/05/05 02:57:33;;;;;;;11.32;5.10;;;;;;;;;;5031728;28;20041;-62
2023/05/05 03:00:06;;;;;;;13.05;5.60;;;;;;;;;;5031693;28;20022;-63
2023/05/05 03:02:39;;;;;;;13.45;5.05;;;;;;;;;;5031791;28;20017;-62
2023/05/05 03:05:05;;;;;;;9.02;5.20;;;;;;;;;;5031659;28;20045;-63
2023/05/05 03:07:32;;;;;;;13.88;5.20;;;;;;;;;;5031171;28;20029;-62
2023/05/05 03:10:05;;;;;;;11.40;5.32;;;;;;;;;;5031656;28;20087;-65
2023/05/05 03:12:36;;;;;;;10.95;5.43;;;;;;;;;;5031729;28;20087;-62
2023/05/05 03:15:01;;;;;;;9.18;4.82;;;;;;;;;;5031323;28;20017;-62
2023/05/05 03:17:28;;;;;;;12.07;5.35;;;;;;;;;;5031576;28;20025;-62
2023/05/05 03:19:54;;;;;;;10.98;5.28;;;;;;;;;;5029737;28;20017;-61
2023/05/05 03:22:19;;;;;;;15.82;5.07;;;;;;;;;;5030960;28;20047;-63
2023/05/05 03:24:48;;;;;;;15.10;5.80;;;;;;;;;;5029773;28;20506;-62
2023/05/05 03:27:13;;;;;;;7.93;4.07;;;;;;;;;;5031974;28;20044;-62
2023/05/05 03:29:38;;;;;;;11.35;5.13;;;;;;;;;;5031842;28;20053;-61
2023/05/05 03:32:04;;;;;;;9.13;4.82;;;;;;;;;;5031812;28;20064;-63
2023/05/05 03:34:29;;;;;;;11.00;5.25;;;;;;;;;;5032977;28;20092;-62
2023/05/05 03:36:55;;;;;;;13.93;5.07;;;;;;;;;;5031215;28;20014;-63
2023/05/05 03:39:20;;;;;;;10.68;4.63;;;;;;;;;;5037844;28;20017;-61
2023/05/05 03:41:45;;;;;;;12.98;5.50;;;;;;;;;;5032422;28;20023;-65
2023/05/05 03:44:10;;;;;;;12.38;6.10;;;;;;;;;;5031199;28;20144;-61
2023/05/05 03:46:35;;;;;;;18.50;5.20;;;;;;;;;;5031140;28;20063;-62
2023/05/05 03:49:01;;;;;;;10.35;4.53;;;;;;;;;;5031694;28;20079;-62
2023/05/05 03:51:26;;;;;;;12.65;5.35;;;;;;;;;;5022514;28;20040;-61
2023/05/05 03:53:52;;;;;;;11.30;4.82;;;;;;;;;;5027613;28;20025;-63
2023/05/05 03:56:17;;;;;;;11.98;5.07;;;;;;;;;;5030717;28;20033;-61
2023/05/05 03:58:42;;;;;;;12.05;4.30;;;;;;;;;;5030838;28;20037;-62
2023/05/05 04:01:07;;;;;;;14.77;5.18;;;;;;;;;;5030568;28;20022;-62
2023/05/05 04:03:33;;;;;;;9.55;5.22;;;;;;;;;;5030046;28;20164;-62
2023/05/05 04:05:58;;;;;;;11.02;5.00;;;;;;;;;;5030588;28;20089;-60
2023/05/05 04:08:23;;;;;;;10.63;4.85;;;;;;;;;;5029745;28;20029;-61
2023/05/05 04:10:48;;;;;;;9.48;4.95;;;;;;;;;;5030670;28;20100;-62
2023/05/05 04:13:14;;;;;;;17.15;4.47;;;;;;;;;;5030444;28;20079;-62
2023/05/05 04:15:43;;;;;;;15.68;6.10;;;;;;;;;;5030402;28;20375;-61
2023/05/05 04:18:08;;;;;;;8.25;4.53;;;;;;;;;;5030037;28;20116;-60
2023/05/05 04:20:33;;;;;;;11.88;5.00;;;;;;;;;;5029977;28;20104;-61
2023/05/05 04:22:59;;;;;;;11.13;4.78;;;;;;;;;;5029950;28;20030;-62
2023/05/05 04:25:24;;;;;;;13.60;4.60;;;;;;;;;;5029727;28;20082;-63
2023/05/05 04:27:49;;;;;;;8.35;4.47;;;;;;;;;;5029468;28;20021;-62
2023/05/05 04:30:15;;;;;;;12.43;4.40;;;;;;;;;;5024954;28;20020;-63
2023/05/05 04:32:40;;;;;;;11.23;4.30;;;;;;;;;;5026352;28;20033;-62
2023/05/05 04:35:06;;;;;;;10.52;4.45;;;;;;;;;;5024027;28;20029;-62
2023/05/05 04:37:31;;;;;;;7.72;4.05;;;;;;;;;;5026746;28;20608;-63
2023/05/05 04:39:57;;;;;;;15.82;4.60;;;;;;;;;;5025565;28;20101;-63
2023/05/05 04:42:22;;;;;;;8.32;4.07;;;;;;;;;;5021900;28;20074;-64
2023/05/05 04:44:47;;;;;;;18.90;4.95;;;;;;;;;;5019632;28;20032;-63
2023/05/05 04:47:12;;;;;;;10.15;4.45;;;;;;;;;;5027635;28;20021;-63
2023/05/05 04:49:37;;;;;;;15.90;4.88;;;;;;;;;;5028102;28;20025;-64
2023/05/05 04:52:03;;;;;;;13.88;4.57;;;;;;;;;;5023664;28;20025;-61
2023/05/05 04:54:28;;;;;;;13.18;4.70;;;;;;;;;;5022254;28;20053;-64
2023/05/05 04:56:54;;;;;;;11.80;4.95;;;;;;;;;;5011579;28;20047;-65
2023/05/05 04:59:19;;;;;;;8.20;4.28;;;;;;;;;;5017900;28;20080;-64
2023/05/05 05:01:45;;;;;;;7.28;3.88;;;;;;;;;;5011143;28;20048;-65
2023/05/05 05:04:10;;;;;;;12.57;4.20;;;;;;;;;;5020908;28;20017;-65
2023/05/05 05:06:36;;;;;;;14.27;4.88;;;;;;;;;;5020208;28;20046;-62
2023/05/05 05:09:01;;;;;;;9.07;4.38;;;;;;;;;;5018512;28;20105;-66
2023/05/05 05:11:26;;;;;;;12.93;4.07;;;;;;;;;;5017030;28;20026;-63
2023/05/05 05:13:52;;;;;;;12.52;4.20;;;;;;;;;;5019254;28;20022;-64
2023/05/05 05:16:17;;;;;;;12.07;4.30;;;;;;;;;;5022977;28;20026;-66
2023/05/05 05:18:42;;;;;;;8.80;4.45;;;;;;;;;;5011978;28;20037;-67
2023/05/05 05:21:07;;;;;;;9.10;4.28;;;;;;;;;;5014874;28;20017;-65
2023/05/05 05:23:33;;;;;;;9.57;4.35;;;;;;;;;;5020709;28;20021;-63
2023/05/05 05:25:58;;;;;;;8.10;4.40;;;;;;;;;;5019930;28;20550;-67
2023/05/05 05:28:23;;;;;;;10.68;4.68;;;;;;;;;;5020631;28;20034;-64
2023/05/05 05:30:49;;;;;;;14.63;5.18;;;;;;;;;;5027095;28;20540;-65
2023/05/05 05:33:14;;;;;;;9.77;4.05;;;;;;;;;;5015480;28;20530;-65
2023/05/05 05:35:39;;;;;;;15.57;4.57;;;;;;;;;;5014877;28;20111;-65
2023/05/05 05:38:04;;;;;;;9.13;4.35;;;;;;;;;;5025755;28;20026;-62
2023/05/05 05:40:30;;;;;;;10.93;4.75;;;;;;;;;;5021649;28;20021;-65
2023/05/05 05:42:55;;;;;;;11.98;3.97;;;;;;;;;;5016167;28;20384;-64
2023/05/05 05:45:20;;;;;;;7.13;4.18;;;;;;;;;;5016025;28;20021;-64
2023/05/05 05:47:46;;;;;;;16.00;4.82;;;;;;;;;;5026717;28;20082;-65
2023/05/05 05:50:11;;;;;;;9.48;4.55;;;;;;;;;;5028740;28;20512;-65
2023/05/05 05:52:36;;;;;;;12.38;4.15;;;;;;;;;;5029460;28;20121;-63
2023/05/05 05:55:02;;;;;;;13.15;4.55;;;;;;;;;;5028091;28;20086;-62
2023/05/05 05:57:27;;;;;;;12.48;4.15;;;;;;;;;;5029016;28;20483;-66
2023/05/05 05:59:52;;;;;;;15.55;4.30;;;;;;;;;;5029305;28;20794;-64
2023/05/05 06:02:18;;;;;;;11.18;5.10;;;;;;;;;;5031413;28;20436;-64
2023/05/05 06:04:43;;;;;;;17.75;5.10;;;;;;;;;;5032689;28;20039;-63
2023/05/05 06:07:08;;;;;;;11.82;4.63;;;;;;;;;;5028394;28;20022;-65
2023/05/05 06:09:33;;;;;;;15.45;4.00;;;;;;;;;;5028485;28;20135;-67
2023/05/05 06:11:58;;;;;;;14.95;4.47;;;;;;;;;;5044413;23;20025;-66
2023/05/05 06:14:24;;;;;;;23.73;4.55;;;;;;;;;;5024264;28;20044;-65
2023/05/05 06:16:51;;;;;;;11.25;4.25;;;;;;;;;;5019603;28;20021;-68
2023/05/05 06:19:16;;;;;;;15.90;4.55;;;;;;;;;;5015888;28;20030;-70
2023/05/05 06:21:41;;;;;;;11.55;3.75;;;;;;;;;;5006092;28;20097;-67
2023/05/05 06:24:06;;;;;;;9.90;4.35;;;;;;;;;;5011364;28;20484;-68
2023/05/05 06:26:32;;;;;;;15.38;4.80;;;;;;;;;;5011595;28;20014;-68
2023/05/05 06:28:57;;;;;;;12.13;3.75;;;;;;;;;;5017465;28;20324;-68
2023/05/05 06:31:22;;;;;;;12.00;4.50;;;;;;;;;;5024854;28;20518;-66
2023/05/05 06:33:47;;;;;;;9.20;4.03;;;;;;;;;;5008816;28;20428;-69
2023/05/05 06:36:13;;;;;;;12.57;4.20;;;;;;;;;;5007740;28;20021;-68
2023/05/05 06:38:38;;;;;;;8.90;4.03;;;;;;;;;;5022114;28;20105;-68
2023/05/05 06:41:03;;;;;;;11.27;3.90;;;;;;;;;;5017453;28;20028;-70
2023/05/05 06:43:28;;;;;;;11.88;3.53;;;;;;;;;;5020238;28;20018;-68
2023/05/05 06:45:54;;;;;;;10.48;3.97;;;;;;;;;;5010552;28;20040;-69
2023/05/05 06:48:19;;;;;;;17.45;3.75;;;;;;;;;;5020132;28;20028;-65
2023/05/05 06:50:44;;;;;;;16.55;3.88;;;;;;;;;;5017153;28;20030;-65
2023/05/05 06:53:10;;;;;;;8.93;3.90;;;;;;;;;;5020887;28;20099;-65
2023/05/05 06:55:35;;;;;;;12.32;4.28;;;;;;;;;;5023370;28;20450;-69
2023/05/05 06:58:00;;;;;;;13.55;4.20;;;;;;;;;;5017169;28;20025;-69
2023/05/05 07:00:26;;;;;;;14.18;3.78;;;;;;;;;;5014365;28;20399;-69
2023/05/05 07:02:51;;;;;;;10.52;3.47;;;;;;;;;;5009773;28;20029;-67
2023/05/05 07:05:16;;;;;;;10.73;3.75;;;;;;;;;;5022015;28;20060;-68
2023/05/05 07:07:51;;;;;;;9.23;3.50;;;;;;;;;;5009820;28;20101;-67
2023/05/05 07:10:16;;;;;;;13.98;4.32;;;;;;;;;;5010034;28;20483;-68
2023/05/05 07:12:42;;;;;;;10.13;3.83;;;;;;;;;;5013391;28;20022;-69
2023/05/05 07:15:07;;;;;;;15.15;4.03;;;;;;;;;;5015456;28;20101;-68
2023/05/05 07:17:32;;;;;;;16.50;4.10;;;;;;;;;;5020200;28;20025;-68
2023/05/05 07:19:58;;;;;;;8.05;3.55;;;;;;;;;;5008222;28;20014;-70
2023/05/05 07:22:23;;;;;;;20.65;4.15;;;;;;;;;;4998432;28;20015;-70
2023/05/05 07:24:48;;;;;;;8.35;3.78;;;;;;;;;;5007042;28;20654;-65
2023/05/05 07:27:13;;;;;;;11.18;3.60;;;;;;;;;;5008808;28;20087;-67
2023/05/05 07:29:39;;;;;;;6.97;3.28;;;;;;;;;;5015688;28;20029;-66
2023/05/05 07:32:04;;;;;;;8.07;3.63;;;;;;;;;;5020727;28;20018;-70
2023/05/05 07:34:33;;;;;;;17.73;4.20;;;;;;;;;;5020971;28;20056;-69
2023/05/05 07:36:58;;;;;;;14.00;3.70;;;;;;;;;;5014326;28;20022;-69
2023/05/05 07:39:23;;;;;;;20.23;3.40;;;;;;;;;;5009463;28;20034;-69
2023/05/05 07:41:49;;;;;;;11.70;3.63;;;;;;;;;;5010093;28;20097;-66
2023/05/05 07:44:14;;;;;;;7.25;3.25;;;;;;;;;;5020108;28;20356;-70
2023/05/05 07:46:39;;;;;;;23.88;3.42;;;;;;;;;;5024530;28;20499;-69
2023/05/05 07:49:05;;;;;;;16.10;3.65;;;;;;;;;;5009822;28;20487;-68
2023/05/05 07:51:31;;;;;;;14.82;3.97;;;;;;;;;;5018188;28;20544;-70
2023/05/05 07:53:56;;;;;;;11.30;3.38;;;;;;;;;;5015566;28;20022;-69
2023/05/05 07:56:21;;;;;;;19.83;3.95;;;;;;;;;;5020370;28;20499;-67
2023/05/05 07:58:46;;;;;;;12.43;2.95;;;;;;;;;;5016583;28;20029;-68
2023/05/05 08:01:12;;;;;;;28.23;4.05;;;;;;;;;;5017734;28;20029;-68
2023/05/05 08:03:37;;;;;;;11.25;3.58;;;;;;;;;;5015944;28;20022;-65
2023/05/05 08:06:08;;;;;;;12.65;3.55;;;;;;;;;;5021526;28;20037;-69
2023/05/05 08:08:34;;;;;;;13.38;3.40;;;;;;;;;;5008072;28;20108;-69
2023/05/05 08:11:00;;;;;;;8.45;3.45;;;;;;;;;;5018413;28;20613;-68
2023/05/05 08:13:25;;;;;;;9.75;3.55;;;;;;;;;;5017965;28;20475;-69
2023/05/05 08:15:51;;;;;;;15.52;3.42;;;;;;;;;;5009779;28;20022;-68
2023/05/05 08:18:16;;;;;;;14.80;3.95;;;;;;;;;;5022271;28;20070;-70
2023/05/05 08:20:42;;;;;;;9.13;3.10;;;;;;;;;;5007913;28;20104;-68
2023/05/05 08:23:08;;;;;;;25.20;3.33;;;;;;;;;;4997379;28;20025;-67
2023/05/05 08:25:33;;;;;;;13.10;3.40;;;;;;;;;;5008961;28;20125;-68
2023/05/05 08:27:58;;;;;;;11.60;3.30;;;;;;;;;;5015577;28;20042;-69
2023/05/05 08:30:24;;;;;;;11.27;3.45;;;;;;;;;;5022558;28;20036;-69
2023/05/05 08:32:49;;;;;;;11.82;3.33;;;;;;;;;;5022380;28;20025;-68
2023/05/05 08:35:14;;;;;;;13.13;4.07;;;;;;;;;;5009004;28;20017;-70
2023/05/05 08:37:39;;;;;;;16.67;4.90;;;;;;;;;;5009297;28;20100;-67
2023/05/05 08:40:05;;;;;;;9.98;3.35;;;;;;;;;;5008976;28;20014;-67
2023/05/05 08:42:30;;;;;;;12.40;3.50;;;;;;;;;;5008618;28;20026;-67
2023/05/05 08:44:55;;;;;;;14.10;4.03;;;;;;;;;;5017713;28;20708;-69
2023/05/05 08:47:21;;;;;;;11.45;4.28;;;;;;;;;;5021852;28;20097;-68
2023/05/05 08:49:46;;;;;;;13.88;3.20;;;;;;;;;;5008728;28;20018;-66
2023/05/05 08:52:13;;;;;;;14.30;3.40;;;;;;;;;;5008384;28;20021;-69
2023/05/05 08:54:43;;;;;;;7.65;3.30;;;;;;;;;;5008593;28;20129;-69
2023/05/05 08:57:09;;;;;;;11.73;3.35;;;;;;;;;;5008203;28;20029;-69
2023/05/05 08:59:35;;;;;;;11.20;3.88;;;;;;;;;;5011896;28;20050;-69
2023/05/05 09:02:02;;;;;;;14.20;3.75;;;;;;;;;;5008477;28;20052;-67
2023/05/05 09:04:27;;;;;;;6.93;3.03;;;;;;;;;;5007636;28;20033;-67
2023/05/05 09:06:54;;;;;;;8.27;2.88;;;;;;;;;;5007244;28;20018;-68
2023/05/05 09:09:19;;;;;;;17.52;3.80;;;;;;;;;;5017097;28;20061;-67
2023/05/05 09:11:44;;;;;;;13.77;3.30;;;;;;;;;;5008361;28;20500;-69
2023/05/05 09:14:10;;;;;;;10.48;4.40;;;;;;;;;;5008842;28;20053;-67
2023/05/05 09:16:38;;;;;;;7.97;3.22;;;;;;;;;;5008961;28;20127;-68
2023/05/05 09:19:04;;;;;;;9.60;3.50;;;;;;;;;;5017073;28;20041;-68
2023/05/05 09:21:29;;;;;;;9.75;3.08;;;;;;;;;;5005389;28;20103;-69
2023/05/05 09:24:10;;;;;;;9.43;3.28;;;;;;;;;;4997234;28;20026;-68
2023/05/05 09:26:36;;;;;;;7.97;3.00;;;;;;;;;;5021127;28;20452;-69
2023/05/05 09:29:02;;;;;;;12.65;3.38;;;;;;;;;;5008152;28;20048;-66
2023/05/05 09:31:31;;;;;;;9.45;2.80;;;;;;;;;;5008449;28;20022;-67
2023/05/05 09:33:59;;;;;;;12.65;3.85;;;;;;;;;;5006720;28;20120;-69
2023/05/05 09:36:43;;;;;;;14.18;3.42;;;;;;;;;;5005599;28;20108;-69
2023/05/05 09:39:09;;;;;;;10.73;3.47;;;;;;;;;;5019761;28;20355;-69
2023/05/05 09:41:41;;;;;;;7.85;2.90;;;;;;;;;;5015354;28;20018;-66
2023/05/05 09:44:06;;;;;;;6.93;2.53;;;;;;;;;;5011626;28;20021;-69
2023/05/05 09:46:32;;;;;;;8.82;2.65;;;;;;;;;;5012333;28;20090;-66
2023/05/05 09:49:19;;;;;;;15.85;2.33;;;;;;;;;;5011801;28;20084;-68
2023/05/05 09:51:44;;;;;;;6.93;2.75;;;;;;;;;;5022315;28;20025;-66
2023/05/05 09:54:26;;;;;;;9.50;3.47;;;;;;;;;;5013640;28;20036;-71
2023/05/05 09:56:52;;;;;;;17.05;2.58;;;;;;;;;;5012037;28;20053;-69
2023/05/05 09:59:17;;;;;;;11.00;2.50;;;;;;;;;;5024833;28;20026;-69
2023/05/05 10:01:43;;;;;;;11.98;2.40;;;;;;;;;;5011875;28;20567;-70
2023/05/05 10:04:24;;;;;;;23.30;2.42;;;;;;;;;;5017461;28;20022;-68
2023/05/05 10:06:49;;;;;;;6.35;2.28;;;;;;;;;;5015949;28;20488;-64
2023/05/05 10:09:15;;;;;;;6.40;2.08;;;;;;;;;;5011510;28;20072;-70
2023/05/05 10:11:41;;;;;;;8.13;1.88;;;;;;;;;;5020886;28;20034;-69
2023/05/05 10:14:06;;;;;;;11.25;2.25;;;;;;;;;;5011307;28;20030;-69
2023/05/05 10:16:31;;;;;;;4.80;1.80;;;;;;;;;;5011453;28;20029;-67
2023/05/05 10:18:58;;;;;;;5.97;1.80;;;;;;;;;;5012245;28;20053;-67
2023/05/05 10:21:24;;;;;;;4.63;1.92;;;;;;;;;;5005734;28;20076;-67
2023/05/05 10:24:01;;;;;;;6.70;2.00;;;;;;;;;;5000866;28;20010;-68
2023/05/05 10:26:26;;;;;;;7.18;1.98;;;;;;;;;;5025050;28;20021;-69
2023/05/05 10:28:54;;;;;;;6.88;2.17;;;;;;;;;;5022195;28;20147;-69
2023/05/05 10:31:23;;;;;;;7.40;2.72;;;;;;;;;;5015850;28;20534;-67
2023/05/05 10:33:52;;;;;;;5.85;1.90;;;;;;;;;;5012474;28;20123;-69
2023/05/05 10:36:18;;;;;;;6.72;2.40;;;;;;;;;;5014024;28;20489;-69
2023/05/05 10:38:44;;;;;;;7.40;2.00;;;;;;;;;;5022532;28;20502;-67
2023/05/05 10:41:10;;;;;;;7.63;2.10;;;;;;;;;;5014238;28;20041;-69
2023/05/05 10:43:36;;;;;;;6.68;1.92;;;;;;;;;;5020442;28;20025;-67
2023/05/05 10:46:01;;;;;;;11.38;2.20;;;;;;;;;;5014111;28;20014;-67
2023/05/05 10:48:47;;;;;;;5.30;2.10;;;;;;;;;;5009750;28;20017;-69
2023/05/05 10:51:25;;;;;;;16.67;2.42;;;;;;;;;;4998283;28;20537;-69
2023/05/05 10:53:56;;;;;;;7.10;2.15;;;;;;;;;;5009436;28;20113;-69
2023/05/05 10:56:31;;;;;;;10.35;2.55;;;;;;;;;;5016126;28;20029;-67
2023/05/05 10:58:56;;;;;;;21.05;3.15;;;;;;;;;;5014306;28;20022;-65
2023/05/05 11:01:31;;;;;;;7.65;2.38;;;;;;;;;;5011636;28;20448;-66
2023/05/05 11:04:16;;;;;;;6.85;2.25;;;;;;;;;;5024414;28;20022;-67
2023/05/05 11:07:01;;;;;;;9.15;2.15;;;;;;;;;;5009714;28;20101;-66
2023/05/05 11:09:27;;;;;;;3.60;1.98;;;;;;;;;;5010413;28;20033;-69
2023/05/05 11:12:02;;;;;;;7.07;2.10;;;;;;;;;;5022394;28;20030;-70
2023/05/05 11:14:27;;;;;;;8.20;1.95;;;;;;;;;;5020694;28;20166;-69
2023/05/05 11:16:53;;;;;;;7.10;1.83;;;;;;;;;;5012494;28;20057;-69
2023/05/05 11:19:37;;;;;;;10.77;2.47;;;;;;;;;;5009962;28;20151;-69
2023/05/05 11:22:03;;;;;;;10.30;2.20;;;;;;;;;;4991499;28;20015;-68
2023/05/05 11:24:32;;;;;;;6.13;2.20;;;;;;;;;;5003064;28;20021;-70
2023/05/05 11:26:57;;;;;;;6.78;2.33;;;;;;;;;;5011615;28;20026;-66
2023/05/05 11:29:22;;;;;;;7.15;2.30;;;;;;;;;;5021753;28;20022;-69
2023/05/05 11:32:06;;;;;;;11.27;2.50;;;;;;;;;;5012497;28;20045;-69
2023/05/05 11:34:31;;;;;;;8.90;2.42;;;;;;;;;;5008589;28;20029;-65
2023/05/05 11:37:00;;;;;;;12.25;2.55;;;;;;;;;;5006920;28;20022;-69
2023/05/05 11:39:31;;;;;;;7.28;2.10;;;;;;;;;;5008976;28;20515;-69
2023/05/05 11:42:10;;;;;;;10.23;2.72;;;;;;;;;;5016502;28;20030;-69
2023/05/05 11:44:36;;;;;;;5.75;2.13;;;;;;;;;;5009986;28;20029;-70
2023/05/05 11:47:04;;;;;;;5.55;2.30;;;;;;;;;;5010113;28;20026;-67
2023/05/05 11:49:31;;;;;;;7.10;2.47;;;;;;;;;;5014569;28;20092;-69
2023/05/05 11:51:57;;;;;;;12.55;2.70;;;;;;;;;;5024012;28;20049;-69
2023/05/05 11:54:22;;;;;;;12.88;2.25;;;;;;;;;;5010677;28;20436;-66
2023/05/05 11:56:50;;;;;;;11.27;2.65;;;;;;;;;;5013869;28;20029;-69
2023/05/05 11:59:16;;;;;;;;;;;;;;;;;;5012806;28;20117;-70
2023/05/05 12:01:41;;;;;;;5.60;2.30;;;;;;;;;;5009598;28;20008;-70
2023/05/05 12:04:13;;;;;;;10.45;2.05;;;;;;;;;;5015167;28;20623;-69
2023/05/05 12:06:39;;;;;;;8.23;2.58;;;;;;;;;;5008999;28;20047;-68
2023/05/05 12:09:05;;;;;;;8.07;2.30;;;;;;;;;;5005141;28;20091;-70
2023/05/05 12:11:30;;;;;;;26.40;4.20;;;;;;;;;;5023835;28;20021;-73
2023/05/05 12:14:09;;;;;;;10.07;2.60;;;;;;;;;;5026909;23;20038;-68
2023/05/05 12:16:34;;;;;;;9.88;2.38;;;;;;;;;;5008240;28;20294;-67
2023/05/05 12:19:04;;;;;;;7.15;2.45;;;;;;;;;;5009359;28;20065;-67
2023/05/05 12:21:30;;;;;;;5.10;2.22;;;;;;;;;;5008371;28;20018;-69
2023/05/05 12:23:55;;;;;;;7.00;2.35;;;;;;;;;;5009983;28;20420;-67
2023/05/05 12:26:27;;;;;;;7.15;2.00;;;;;;;;;;5009777;28;20523;-69
2023/05/05 12:28:53;;;;;;;6.82;2.10;;;;;;;;;;5008912;28;20041;-68
2023/05/05 12:31:18;;;;;;;8.70;2.90;;;;;;;;;;5009943;28;20438;-68
2023/05/05 12:33:44;;;;;;;15.52;2.90;;;;;;;;;;5000797;28;20037;-68
2023/05/05 12:36:11;;;;;;;5.93;2.80;;;;;;;;;;5010135;28;20084;-66
2023/05/05 12:38:36;;;;;;;7.53;3.25;;;;;;;;;;4995422;28;20083;-68
2023/05/05 12:41:01;;;;;;;10.20;3.13;;;;;;;;;;5013514;28;20116;-69
2023/05/05 12:43:26;;;;;;;8.50;3.20;;;;;;;;;;5009753;28;20694;-68
2023/05/05 12:46:04;;;;;;;9.87;2.67;;;;;;;;;;5009324;28;20384;-70
2023/05/05 12:48:29;;;;;;;9.07;2.30;;;;;;;;;;5010317;28;20678;-69
2023/05/05 12:51:08;;;;;;;6.47;2.50;;;;;;;;;;5012917;28;20096;-67
2023/05/05 12:53:33;;;;;;;15.23;2.40;;;;;;;;;;5009428;28;20026;-69
2023/05/05 12:55:59;;;;;;;9.65;2.70;;;;;;;;;;5009203;28;20400;-67
2023/05/05 12:58:26;;;;;;;6.15;2.25;;;;;;;;;;5009370;28;20038;-67
2023/05/05 13:01:07;;;;;;;6.38;2.38;;;;;;;;;;5009019;28;20535;-69
2023/05/05 13:03:33;;;;;;;9.82;3.40;;;;;;;;;;5007226;28;20107;-68
2023/05/05 13:05:58;;;;;;;6.97;2.50;;;;;;;;;;5020488;28;20048;-68
2023/05/05 13:08:40;;;;;;;9.97;2.57;;;;;;;;;;5007175;28;20028;-69
2023/05/05 13:11:05;;;;;;;7.55;2.90;;;;;;;;;;5008992;28;20748;-66
2023/05/05 13:13:31;;;;;;;5.85;2.47;;;;;;;;;;5012066;28;20026;-69
2023/05/05 13:15:56;;;;;;;12.05;2.15;;;;;;;;;;5011463;28;20034;-69
2023/05/05 13:18:21;;;;;;;5.05;1.92;;;;;;;;;;5013318;28;20030;-69
2023/05/05 13:20:47;;;;;;;9.05;2.50;;;;;;;;;;5013571;28;20105;-70
2023/05/05 13:23:12;;;;;;;7.32;2.20;;;;;;;;;;5005146;28;20089;-69
2023/05/05 13:25:37;;;;;;;9.35;2.65;;;;;;;;;;5014969;28;20104;-69
2023/05/05 13:28:02;;;;;;;7.82;2.40;;;;;;;;;;5021918;28;20695;-68
2023/05/05 13:30:28;;;;;;;9.95;3.90;;;;;;;;;;5025036;28;20021;-70
2023/05/05 13:32:53;;;;;;;10.63;1.98;;;;;;;;;;5012670;28;20018;-68
2023/05/05 13:35:18;;;;;;;6.20;2.42;;;;;;;;;;5015431;28;20575;-68
2023/05/05 13:37:45;;;;;;;8.43;2.17;;;;;;;;;;5015237;28;20104;-69
2023/05/05 13:40:12;;;;;;;7.35;2.60;;;;;;;;;;5009282;28;20263;-67
2023/05/05 13:42:37;;;;;;;7.53;2.80;;;;;;;;;;5011078;28;20421;-69
2023/05/05 13:45:02;;;;;;;7.65;2.45;;;;;;;;;;5017616;28;20033;-68
2023/05/05 13:47:28;;;;;;;10.65;2.30;;;;;;;;;;5012553;28;20426;-69
2023/05/05 13:49:53;;;;;;;9.10;2.30;;;;;;;;;;5012298;28;20479;-69
2023/05/05 13:52:18;;;;;;;10.20;2.55;;;;;;;;;;5011053;28;20029;-68
2023/05/05 13:54:44;;;;;;;8.20;2.17;;;;;;;;;;5018362;28;20021;-66
2023/05/05 13:57:10;;;;;;;4.70;1.92;;;;;;;;;;5017343;28;20259;-68
2023/05/05 13:59:36;;;;;;;8.82;2.38;;;;;;;;;;5003235;28;20026;-68
2023/05/05 14:02:01;;;;;;;14.00;2.50;;;;;;;;;;5012150;28;20109;-67
2023/05/05 14:04:26;;;;;;;9.77;3.00;;;;;;;;;;5021968;28;20030;-68
2023/05/05 14:06:52;;;;;;;6.68;2.00;;;;;;;;;;5010949;28;20641;-67
2023/05/05 14:09:17;;;;;;;8.15;1.92;;;;;;;;;;5017144;28;20021;-69
2023/05/05 14:11:45;;;;;;;11.45;2.17;;;;;;;;;;5020123;28;20049;-67
2023/05/05 14:14:10;;;;;;;8.52;2.05;;;;;;;;;;5013183;28;20049;-67
2023/05/05 14:16:36;;;;;;;5.60;2.45;;;;;;;;;;5012225;28;20065;-68
2023/05/05 14:19:01;;;;;;;16.58;2.42;;;;;;;;;;5025261;28;20060;-67
2023/05/05 14:21:26;;;;;;;6.67;1.77;;;;;;;;;;5011829;28;20053;-68
2023/05/05 14:23:51;;;;;;;12.50;2.10;;;;;;;;;;5013367;28;20243;-69
2023/05/05 14:26:16;;;;;;;5.90;2.40;;;;;;;;;;5012111;28;20022;-67
2023/05/05 14:28:42;;;;;;;11.27;2.50;;;;;;;;;;5011619;28;20121;-67
2023/05/05 14:31:07;;;;;;;10.32;2.33;;;;;;;;;;5011910;28;20026;-67
2023/05/05 14:33:32;;;;;;;9.43;2.30;;;;;;;;;;5006305;28;20026;-68
2023/05/05 14:35:58;;;;;;;10.13;2.13;;;;;;;;;;5002337;28;20423;-67